Time;durP1;ratioP1;P1;durP2;ratioP2;P2;SDS_P1;SDS_P2;PMS_P1;PMS_P2;Temp;Humidity;BMP_temperature;BMP_pressure;BME280_temperature;BME280_humidity;BME280_pressure;Samples;Min_cycle;Max_cycle;Signal;HPM_P1;HPM_P2
2024/03/27 00:02:23;;;;;;;0.10;0.10;;;;;;;12.19;38.54;98531.72;4468500;32;33402;-81
2024/03/27 00:04:50;;;;;;;0.25;0.25;;;;;;;12.49;38.05;98529.56;4444053;32;33826;-81
2024/03/27 00:07:18;;;;;;;0.20;0.20;;;;;;;12.35;38.36;98518.25;4456609;32;34390;-80
2024/03/27 00:09:45;;;;;;;1.00;0.90;;;;;;;12.46;38.40;98521.81;4443455;32;32527;-81
2024/03/27 00:12:12;;;;;;;0.35;0.35;;;;;;;12.38;38.81;98523.31;4442997;32;34607;-81
2024/03/27 00:14:39;;;;;;;0.73;0.73;;;;;;;12.59;38.61;98524.44;4455884;32;33412;-82
2024/03/27 00:17:06;;;;;;;0.28;0.28;;;;;;;12.54;38.77;98524.78;4456845;32;32659;-81
2024/03/27 00:19:32;;;;;;;1.27;1.27;;;;;;;12.37;39.05;98521.63;4444024;32;33210;-81
2024/03/27 00:21:59;;;;;;;0.35;0.35;;;;;;;12.42;39.24;98525.62;4469613;32;32445;-81
2024/03/27 00:24:28;;;;;;;0.80;0.47;;;;;;;11.96;40.04;98533.31;4456504;32;32682;-81
2024/03/27 00:26:55;;;;;;;1.02;0.30;;;;;;;12.29;39.66;98530.09;4430905;32;32912;-82
2024/03/27 00:29:22;;;;;;;0.03;0.03;;;;;;;12.30;39.70;98529.19;4457274;32;33189;-81
2024/03/27 00:31:49;;;;;;;0.28;0.28;;;;;;;12.54;39.53;98531.88;4456839;32;33602;-82
2024/03/27 00:34:16;;;;;;;0.20;0.20;;;;;;;12.63;39.48;98528.56;4456724;32;35924;-81
2024/03/27 00:36:43;;;;;;;0.28;0.28;;;;;;;12.74;39.34;98522.47;4458186;32;32972;-80
2024/03/27 00:39:09;;;;;;;0.00;0.00;;;;;;;12.82;39.43;98523.63;4451623;32;32829;-80
2024/03/27 00:41:36;;;;;;;0.00;0.00;;;;;;;12.55;40.09;98518.50;4456601;32;32886;-80
2024/03/27 00:44:03;;;;;;;0.32;0.32;;;;;;;12.71;39.97;98514.75;4469505;32;33663;-80
2024/03/27 00:46:29;;;;;;;10.15;0.85;;;;;;;12.83;39.86;98511.22;4443325;32;32774;-80
2024/03/27 00:48:56;;;;;;;0.00;0.00;;;;;;;12.88;40.12;98518.81;4469272;32;33444;-80
2024/03/27 00:51:23;;;;;;;1.87;1.20;;;;;;;12.88;40.21;98505.59;4469175;32;34516;-80
2024/03/27 00:53:49;;;;;;;0.00;0.00;;;;;;;12.42;41.00;98504.47;4469201;32;34301;-80
2024/03/27 00:56:16;;;;;;;0.15;0.15;;;;;;;12.47;41.24;98504.97;4468935;32;34500;-81
2024/03/27 00:58:42;;;;;;;0.10;0.10;;;;;;;12.90;40.59;98507.16;4456454;32;33840;-81
2024/03/27 01:01:09;;;;;;;0.05;0.00;;;;;;;12.70;40.74;98498.00;4456509;32;33112;-80
2024/03/27 01:03:36;;;;;;;0.10;0.10;;;;;;;12.87;40.73;98501.25;4443122;32;34841;-81
2024/03/27 01:06:03;;;;;;;1.55;0.65;;;;;;;12.86;40.95;98503.03;4451589;32;33045;-80
2024/03/27 01:08:30;;;;;;;0.35;0.32;;;;;;;13.08;40.52;98495.19;4456561;32;33547;-81
2024/03/27 01:10:57;;;;;;;0.32;0.32;;;;;;;12.03;42.88;98498.41;4430674;32;33555;-80
2024/03/27 01:13:23;;;;;;;0.28;0.28;;;;;;;12.42;41.91;98490.38;4468548;32;33591;-80
2024/03/27 01:15:50;;;;;;;1.80;0.57;;;;;;;12.80;41.23;98492.87;4455913;32;32887;-81
2024/03/27 01:18:18;;;;;;;1.02;1.02;;;;;;;12.76;41.53;98488.78;4455196;32;34273;-80
2024/03/27 01:20:45;;;;;;;0.00;0.00;;;;;;;12.61;41.43;98479.31;4467178;32;32306;-81
2024/03/27 01:23:12;;;;;;;0.32;0.32;;;;;;;12.55;41.53;98477.97;4455591;32;33520;-81
2024/03/27 01:25:39;;;;;;;1.45;0.90;;;;;;;12.50;41.85;98483.59;4455741;32;34503;-81
2024/03/27 01:28:06;;;;;;;0.80;0.50;;;;;;;12.54;41.85;98485.06;4456002;32;31857;-81
2024/03/27 01:30:33;;;;;;;14.70;0.88;;;;;;;12.40;42.10;98474.63;4442894;31;34031;-81
2024/03/27 01:33:00;;;;;;;0.10;0.10;;;;;;;12.62;41.92;98468.59;4456529;32;34487;-81
2024/03/27 01:35:26;;;;;;;0.80;0.32;;;;;;;12.84;41.33;98461.72;4456612;32;34480;-81
2024/03/27 01:37:53;;;;;;;0.15;0.15;;;;;;;12.92;41.15;98457.56;4469812;32;32182;-81
2024/03/27 01:40:20;;;;;;;0.30;0.25;;;;;;;12.48;41.92;98456.34;4443154;32;34838;-81
2024/03/27 01:42:57;;;;;;;0.20;0.20;;;;;;;12.27;42.72;98455.28;4442518;32;32712;-80
2024/03/27 01:45:24;;;;;;;0.32;0.32;;;;;;;12.74;41.77;98453.63;4455479;32;35690;-80
2024/03/27 01:47:51;;;;;;;0.03;0.03;;;;;;;12.52;42.25;98451.69;4469182;32;33475;-80
2024/03/27 01:50:22;;;;;;;0.00;0.00;;;;;;;12.67;42.09;98444.41;4455450;32;33855;-81
2024/03/27 01:52:50;;;;;;;0.63;0.63;;;;;;;12.43;42.67;98442.62;4430881;32;34687;-80
2024/03/27 01:55:17;;;;;;;0.52;0.52;;;;;;;12.50;42.24;98443.88;4443100;32;32710;-80
2024/03/27 01:57:44;;;;;;;5.22;1.35;;;;;;;12.45;42.59;98445.16;4455793;32;32289;-80
2024/03/27 02:00:12;;;;;;;0.37;0.37;;;;;;;12.48;42.42;98440.47;4429758;32;34766;-80
2024/03/27 02:02:40;;;;;;;0.95;0.80;;;;;;;12.63;42.19;98427.94;4456188;32;32270;-80
2024/03/27 02:05:10;;;;;;;1.37;0.88;;;;;;;12.42;42.81;98425.03;4443070;32;33793;-80
2024/03/27 02:07:39;;;;;;;1.30;0.62;;;;;;;12.28;43.01;98433.16;4443373;32;33694;-80
2024/03/27 02:10:07;;;;;;;0.10;0.10;;;;;;;12.45;42.74;98424.84;4455284;32;33676;-80
2024/03/27 02:12:35;;;;;;;0.10;0.10;;;;;;;12.20;43.48;98433.72;4467622;32;34142;-80
2024/03/27 02:15:06;;;;;;;1.00;0.57;;;;;;;12.28;43.48;98423.41;4455096;32;32685;-80
2024/03/27 02:17:33;;;;;;;0.17;0.17;;;;;;;12.33;43.42;98420.41;4442972;32;31969;-79
2024/03/27 02:24:16;;;;;;;0.03;0.03;;;;;;;12.14;44.38;98412.12;4481582;32;34042;-79
2024/03/27 02:26:43;;;;;;;0.33;0.33;;;;;;;12.25;44.03;98412.22;4454679;32;35373;-80
2024/03/27 02:29:10;;;;;;;3.22;0.80;;;;;;;11.89;45.07;98411.25;4442225;32;33101;-80
2024/03/27 02:31:36;;;;;;;0.15;0.15;;;;;;;12.11;44.88;98396.50;4455691;32;33873;-80
2024/03/27 02:34:03;;;;;;;0.52;0.15;;;;;;;12.31;44.42;98385.28;4437774;32;32927;-80
2024/03/27 02:36:30;;;;;;;0.05;0.05;;;;;;;12.18;44.80;98379.19;4457461;32;33772;-80
2024/03/27 02:38:56;;;;;;;0.22;0.22;;;;;;;12.12;45.00;98374.38;4457331;32;31976;-78
2024/03/27 02:41:24;;;;;;;0.03;0.03;;;;;;;11.63;46.18;98367.25;4470760;32;32919;-79
2024/03/27 02:43:51;;;;;;;0.43;0.43;;;;;;;11.66;46.51;98361.75;4457430;32;33975;-82
2024/03/27 02:46:17;;;;;;;0.00;0.00;;;;;;;11.27;47.85;98364.44;4457459;32;33936;-82
2024/03/27 02:48:44;;;;;;;0.98;0.52;;;;;;;11.66;46.97;98364.41;4431658;32;34021;-82
2024/03/27 02:51:11;;;;;;;0.40;0.40;;;;;;;11.76;46.75;98363.63;4456077;32;32784;-82
2024/03/27 02:53:37;;;;;;;2.28;0.82;;;;;;;11.59;47.41;98368.44;4457185;32;33374;-82
2024/03/27 02:56:04;;;;;;;0.00;0.00;;;;;;;11.31;48.28;98370.37;4431297;32;35154;-81
2024/03/27 02:58:31;;;;;;;0.95;0.47;;;;;;;11.53;47.80;98370.53;4457488;32;33718;-81
2024/03/27 03:00:58;;;;;;;4.20;0.40;;;;;;;11.32;48.34;98379.13;4444336;32;33121;-82
2024/03/27 03:03:25;;;;;;;1.17;0.55;;;;;;;11.83;47.40;98371.19;4444263;32;34896;-82
2024/03/27 03:05:52;;;;;;;2.28;0.45;;;;;;;11.48;48.20;98377.09;4457817;32;32787;-81
2024/03/27 03:08:18;;;;;;;1.50;1.27;;;;;;;11.78;47.61;98382.06;4456983;32;31978;-82
2024/03/27 03:10:45;;;;;;;0.08;0.08;;;;;;;11.85;47.51;98390.41;4442929;32;32735;-82
2024/03/27 03:13:12;;;;;;;0.32;0.32;;;;;;;11.86;47.68;98406.16;4444258;32;33442;-82
2024/03/27 03:15:38;;;;;;;0.20;0.20;;;;;;;11.97;47.40;98408.91;4455176;32;32928;-82
2024/03/27 03:18:05;;;;;;;0.40;0.40;;;;;;;12.15;47.03;98400.56;4432483;32;33414;-81
2024/03/27 03:20:32;;;;;;;2.42;0.73;;;;;;;11.94;47.54;98403.81;4469663;32;33134;-81
2024/03/27 03:22:58;;;;;;;0.10;0.10;;;;;;;12.15;47.28;98411.16;4468836;32;33841;-81
2024/03/27 03:25:25;;;;;;;1.15;0.85;;;;;;;12.17;47.12;98414.56;4431022;32;34731;-81
2024/03/27 03:27:52;;;;;;;0.25;0.25;;;;;;;12.67;46.05;98412.62;4456457;32;34016;-81
2024/03/27 03:30:18;;;;;;;0.10;0.10;;;;;;;12.42;46.80;98403.88;4457063;32;32306;-81
2024/03/27 03:32:45;;;;;;;0.10;0.10;;;;;;;12.24;47.38;98410.50;4457066;32;34281;-81
2024/03/27 03:35:12;;;;;;;3.60;0.20;;;;;;;11.78;48.69;98413.78;4457034;32;33752;-81
2024/03/27 03:37:38;;;;;;;0.08;0.08;;;;;;;12.09;47.97;98406.31;4456715;32;33096;-80
2024/03/27 03:40:07;;;;;;;0.00;0.00;;;;;;;12.32;47.43;98397.56;4455870;32;32918;-79
2024/03/27 03:42:33;;;;;;;0.10;0.10;;;;;;;11.82;48.68;98393.22;4454748;32;32664;-79
2024/03/27 03:45:01;;;;;;;0.13;0.13;;;;;;;11.79;48.86;98400.44;4442289;32;32277;-79
2024/03/27 03:47:30;;;;;;;0.37;0.30;;;;;;;12.45;47.31;98402.81;4444710;32;33305;-79
2024/03/27 03:49:56;;;;;;;0.30;0.30;;;;;;;12.29;47.55;98405.72;4456576;32;33413;-79
2024/03/27 03:52:23;;;;;;;0.05;0.05;;;;;;;12.32;47.42;98416.09;4455174;32;33224;-79
2024/03/27 03:54:49;;;;;;;0.00;0.00;;;;;;;12.14;47.80;98415.63;4456396;32;33882;-79
2024/03/27 03:57:16;;;;;;;2.92;0.52;;;;;;;11.94;48.41;98419.69;4456230;32;32035;-80
2024/03/27 03:59:42;;;;;;;0.00;0.00;;;;;;;12.33;47.38;98414.28;4443267;32;33939;-79
2024/03/27 04:02:10;;;;;;;0.60;0.45;;;;;;;12.21;47.58;98426.62;4456466;32;33929;-80
2024/03/27 04:04:37;;;;;;;0.05;0.05;;;;;;;12.61;46.50;98418.41;4443634;32;35533;-80
2024/03/27 04:07:03;;;;;;;0.05;0.05;;;;;;;12.65;46.60;98427.81;4457259;32;32568;-80
2024/03/27 04:09:31;;;;;;;0.20;0.10;;;;;;;12.64;46.59;98434.06;4469728;32;34602;-80
2024/03/27 04:11:58;;;;;;;0.65;0.65;;;;;;;12.74;46.46;98435.91;4469312;32;33384;-81
2024/03/27 04:14:25;;;;;;;1.85;1.02;;;;;;;12.88;46.19;98428.75;4455759;32;34082;-80
2024/03/27 04:16:52;;;;;;;0.35;0.35;;;;;;;12.75;46.71;98434.12;4443829;32;32209;-80
2024/03/27 04:19:19;;;;;;;0.00;0.00;;;;;;;12.48;47.57;98440.47;4430157;32;32536;-80
2024/03/27 04:21:45;;;;;;;0.52;0.43;;;;;;;12.67;47.18;98436.47;4469168;32;33295;-80
2024/03/27 04:24:12;;;;;;;0.47;0.45;;;;;;;12.70;47.36;98437.09;4456345;32;33133;-81
2024/03/27 04:26:38;;;;;;;0.30;0.30;;;;;;;12.79;47.26;98439.06;4443883;32;33982;-80
2024/03/27 04:29:05;;;;;;;0.35;0.35;;;;;;;12.69;47.76;98442.53;4469036;32;34068;-80
2024/03/27 04:31:32;;;;;;;1.98;0.52;;;;;;;12.75;47.57;98434.12;4456686;32;33733;-80
2024/03/27 04:33:59;;;;;;;3.30;0.35;;;;;;;13.16;46.74;98431.00;4431207;32;32573;-80
2024/03/27 04:36:25;;;;;;;2.00;1.35;;;;;;;13.15;46.63;98433.75;4456288;32;33201;-80
2024/03/27 04:38:52;;;;;;;0.15;0.00;;;;;;;13.16;46.72;98446.06;4456417;32;33389;-80
2024/03/27 04:41:19;;;;;;;0.25;0.20;;;;;;;13.01;47.04;98443.63;4443262;32;34228;-81
2024/03/27 04:43:46;;;;;;;2.92;0.73;;;;;;;13.02;47.03;98440.00;4456708;32;32641;-80
2024/03/27 04:46:12;;;;;;;6.80;1.17;;;;;;;12.72;48.00;98442.28;4456253;31;31946;-80
2024/03/27 04:48:39;;;;;;;0.47;0.47;;;;;;;12.67;48.58;98441.78;4456147;32;34642;-80
2024/03/27 04:51:06;;;;;;;0.37;0.37;;;;;;;12.71;48.62;98456.47;4467962;32;33949;-80
2024/03/27 04:53:33;;;;;;;0.15;0.15;;;;;;;12.59;49.10;98450.31;4457049;31;32393;-80
2024/03/27 04:56:00;;;;;;;0.88;0.85;;;;;;;12.74;48.92;98445.69;4430707;32;34012;-80
2024/03/27 04:58:26;;;;;;;0.03;0.03;;;;;;;12.62;49.53;98458.00;4456174;32;33146;-80
2024/03/27 05:00:53;;;;;;;0.13;0.10;;;;;;;12.64;49.35;98449.97;4446161;32;33225;-80
2024/03/27 05:03:20;;;;;;;0.45;0.40;;;;;;;12.53;50.00;98453.37;4427386;32;35522;-80
2024/03/27 05:05:46;;;;;;;0.20;0.20;;;;;;;12.40;50.60;98458.75;4442923;32;33418;-81
2024/03/27 05:08:16;;;;;;;0.73;0.73;;;;;;;12.48;50.53;98451.06;4467895;32;33060;-81
2024/03/27 05:10:42;;;;;;;1.55;0.82;;;;;;;12.68;49.97;98443.50;4455967;32;33752;-80
2024/03/27 05:13:09;;;;;;;0.15;0.15;;;;;;;12.61;50.15;98444.88;4442444;32;33209;-81
2024/03/27 05:15:35;;;;;;;1.67;0.82;;;;;;;12.70;50.05;98430.97;4467861;32;34129;-80
2024/03/27 05:18:04;;;;;;;0.10;0.10;;;;;;;12.99;49.71;98434.09;4452974;32;35490;-80
2024/03/27 05:20:30;;;;;;;0.10;0.10;;;;;;;13.05;49.63;98426.53;4468626;31;33707;-80
2024/03/27 05:22:57;;;;;;;0.00;0.00;;;;;;;12.88;50.05;98423.47;4440138;32;34132;-80
2024/03/27 05:25:24;;;;;;;0.00;0.00;;;;;;;12.28;51.75;98425.19;4441750;32;33601;-80
2024/03/27 05:27:50;;;;;;;0.00;0.00;;;;;;;12.38;51.84;98415.63;4452559;32;33042;-80
2024/03/27 05:30:17;;;;;;;0.55;0.17;;;;;;;12.78;50.64;98399.47;4455886;31;33685;-80
2024/03/27 05:32:44;;;;;;;3.03;1.55;;;;;;;12.76;51.00;98410.16;4468829;32;34597;-80
2024/03/27 05:35:10;;;;;;;0.80;0.73;;;;;;;12.65;51.38;98419.88;4456076;32;34828;-80
2024/03/27 05:37:37;;;;;;;0.25;0.25;;;;;;;12.77;50.98;98419.81;4455616;32;33306;-80
2024/03/27 05:40:06;;;;;;;0.40;0.40;;;;;;;12.10;53.05;98421.25;4456328;32;32425;-79
2024/03/27 05:42:32;;;;;;;0.22;0.22;;;;;;;12.47;51.88;98412.31;4455377;32;32874;-79
2024/03/27 05:44:59;;;;;;;0.10;0.10;;;;;;;12.67;51.51;98410.00;4455461;32;33303;-79
2024/03/27 05:47:26;;;;;;;0.17;0.17;;;;;;;12.49;52.21;98405.12;4442977;32;34486;-79
2024/03/27 05:49:53;;;;;;;0.90;0.47;;;;;;;12.62;52.14;98393.59;4441273;32;32553;-79
2024/03/27 05:52:19;;;;;;;0.05;0.05;;;;;;;12.51;52.18;98399.69;4455773;32;32702;-79
2024/03/27 05:54:46;;;;;;;0.60;0.60;;;;;;;12.70;51.67;98394.72;4455887;31;34244;-81
2024/03/27 05:57:13;;;;;;;0.00;0.00;;;;;;;12.73;51.50;98391.88;4442840;32;33051;-80
2024/03/27 05:59:39;;;;;;;0.05;0.05;;;;;;;12.56;52.03;98402.84;4441511;32;32655;-80
2024/03/27 06:02:06;;;;;;;0.15;0.15;;;;;;;12.87;51.01;98403.22;4427943;32;34504;-80
2024/03/27 06:04:33;;;;;;;0.88;0.47;;;;;;;13.08;50.66;98393.63;4429884;32;34036;-80
2024/03/27 06:07:01;;;;;;;0.03;0.03;;;;;;;13.06;50.77;98390.28;4441132;32;33104;-80
2024/03/27 06:09:28;;;;;;;0.10;0.10;;;;;;;13.17;50.33;98392.94;4456796;32;34015;-80
2024/03/27 06:11:55;;;;;;;0.93;0.40;;;;;;;13.15;50.13;98391.34;4455779;32;35229;-80
2024/03/27 06:14:22;;;;;;;0.00;0.00;;;;;;;12.96;50.64;98398.09;4441877;31;33115;-80
2024/03/27 06:16:48;;;;;;;0.10;0.10;;;;;;;13.07;50.30;98391.97;4468073;32;34342;-80
2024/03/27 06:19:16;;;;;;;0.90;0.45;;;;;;;13.01;50.55;98379.19;4470342;32;33223;-80
2024/03/27 06:21:43;;;;;;;0.20;0.03;;;;;;;13.28;49.98;98385.03;4444411;32;33180;-81
2024/03/27 06:24:09;;;;;;;0.00;0.00;;;;;;;13.41;49.64;98387.59;4455435;32;35366;-81
2024/03/27 06:26:36;;;;;;;0.05;0.05;;;;;;;13.24;49.96;98388.03;4446827;32;34920;-80
2024/03/27 06:29:03;;;;;;;0.10;0.10;;;;;;;12.80;51.06;98382.47;4470901;32;33865;-80
2024/03/27 06:31:29;;;;;;;0.55;0.45;;;;;;;12.85;51.15;98379.47;4469315;31;34389;-80
2024/03/27 06:33:56;;;;;;;0.15;0.15;;;;;;;13.11;50.50;98379.31;4431273;32;34373;-80
2024/03/27 06:36:23;;;;;;;0.13;0.13;;;;;;;12.75;51.49;98383.78;4456979;32;33514;-80
2024/03/27 06:38:50;;;;;;;0.00;0.00;;;;;;;12.62;51.81;98383.84;4460255;32;32899;-80
2024/03/27 06:41:18;;;;;;;0.60;0.32;;;;;;;12.59;52.05;98383.25;4444122;31;35164;-80
2024/03/27 06:43:47;;;;;;;1.48;0.75;;;;;;;12.59;51.97;98377.97;4452258;32;34265;-80
2024/03/27 06:46:13;;;;;;;0.03;0.00;;;;;;;12.44;52.49;98386.09;4455387;32;32653;-80
2024/03/27 06:48:43;;;;;;;0.57;0.57;;;;;;;12.62;52.01;98380.38;4457564;32;34658;-80
2024/03/27 06:51:10;;;;;;;1.45;0.25;;;;;;;12.57;52.40;98386.84;4444928;32;32219;-80
2024/03/27 06:53:36;;;;;;;0.00;0.00;;;;;;;12.64;52.20;98373.16;4451567;32;32717;-80
2024/03/27 06:56:06;;;;;;;0.10;0.10;;;;;;;13.00;51.46;98377.47;4434016;32;34007;-80
2024/03/27 06:58:33;;;;;;;0.00;0.00;;;;;;;12.39;53.00;98382.06;4458164;32;33507;-80
2024/03/27 07:01:00;;;;;;;0.10;0.10;;;;;;;12.33;53.39;98385.16;4442360;32;33081;-81
2024/03/27 07:03:28;;;;;;;0.28;0.28;;;;;;;12.46;53.05;98392.09;4445994;32;33019;-80
2024/03/27 07:05:54;;;;;;;1.27;1.20;;;;;;;12.49;53.21;98391.03;4443819;32;33912;-80
2024/03/27 07:08:21;;;;;;;0.10;0.10;;;;;;;12.99;51.94;98389.03;4458318;32;34790;-80
2024/03/27 07:10:48;;;;;;;0.00;0.00;;;;;;;12.74;52.92;98382.09;4457824;32;32905;-80
2024/03/27 07:13:14;;;;;;;0.20;0.20;;;;;;;12.97;52.27;98378.56;4471522;32;32966;-80
2024/03/27 07:15:41;;;;;;;0.10;0.10;;;;;;;12.75;52.97;98383.78;4458535;32;33072;-80
2024/03/27 07:18:08;;;;;;;0.28;0.28;;;;;;;12.75;53.12;98389.94;4446752;32;35379;-81
2024/03/27 07:20:34;;;;;;;0.73;0.73;;;;;;;12.67;53.76;98383.50;4443244;32;32338;-80
2024/03/27 07:23:01;;;;;;;0.08;0.00;;;;;;;12.91;53.07;98389.59;4444351;32;33244;-80
2024/03/27 07:25:29;;;;;;;0.20;0.20;;;;;;;13.27;52.36;98386.00;4470465;32;34268;-80
2024/03/27 07:27:55;;;;;;;1.08;0.82;;;;;;;13.30;52.33;98384.94;4444222;32;33382;-80
2024/03/27 07:30:22;;;;;;;0.30;0.30;;;;;;;13.00;53.38;98391.56;4455713;32;32423;-80
2024/03/27 07:32:49;;;;;;;0.32;0.32;;;;;;;12.84;53.63;98383.09;4457570;32;33599;-80
2024/03/27 07:35:15;;;;;;;0.10;0.05;;;;;;;12.86;53.70;98382.97;4456839;32;34068;-80
2024/03/27 07:37:42;;;;;;;0.32;0.32;;;;;;;12.98;53.58;98379.41;4453142;32;33288;-81
2024/03/27 07:40:09;;;;;;;0.13;0.13;;;;;;;13.11;53.42;98379.31;4444398;32;33348;-80
2024/03/27 07:42:36;;;;;;;0.35;0.35;;;;;;;12.90;53.90;98390.56;4469947;32;33175;-80
2024/03/27 07:45:03;;;;;;;0.15;0.15;;;;;;;13.55;52.58;98389.16;4443752;32;32680;-80
2024/03/27 07:47:30;;;;;;;0.10;0.10;;;;;;;13.63;52.11;98386.75;4431566;32;32854;-80
2024/03/27 07:49:56;;;;;;;0.25;0.25;;;;;;;13.11;53.34;98389.94;4456655;32;32642;-80
2024/03/27 07:52:23;;;;;;;0.00;0.00;;;;;;;13.40;52.57;98380.59;4468538;32;33569;-80
2024/03/27 07:54:50;;;;;;;2.55;2.37;;;;;;;13.80;52.13;98380.09;4443885;32;34100;-80
2024/03/27 07:57:17;;;;;;;1.15;0.52;;;;;;;13.63;52.15;98383.28;4456384;32;32900;-80
2024/03/27 07:59:44;;;;;;;0.30;0.30;;;;;;;13.60;52.56;98370.25;4456635;31;33232;-80
2024/03/27 08:02:11;;;;;;;0.30;0.30;;;;;;;13.63;52.57;98375.31;4456356;32;32059;-80
2024/03/27 08:04:38;;;;;;;0.10;0.10;;;;;;;13.48;53.42;98372.91;4469742;32;34475;-81
2024/03/27 08:07:04;;;;;;;0.22;0.22;;;;;;;13.38;53.82;98365.75;4455993;32;34446;-80
2024/03/27 08:09:31;;;;;;;0.10;0.10;;;;;;;13.67;53.17;98369.63;4440660;32;32203;-80
2024/03/27 08:11:58;;;;;;;0.20;0.20;;;;;;;13.03;55.34;98372.78;4431848;32;34787;-80
2024/03/27 08:14:24;;;;;;;0.45;0.40;;;;;;;12.89;55.93;98359.75;4456616;32;33457;-80
2024/03/27 08:16:51;;;;;;;0.28;0.20;;;;;;;13.30;55.00;98359.25;4456759;32;33248;-80
2024/03/27 08:19:17;;;;;;;0.00;0.00;;;;;;;13.41;54.87;98350.47;4443492;32;34110;-80
2024/03/27 08:21:44;;;;;;;0.47;0.47;;;;;;;13.46;54.42;98358.91;4456059;32;33115;-78
2024/03/27 08:24:10;;;;;;;1.15;0.60;;;;;;;13.44;54.82;98363.50;4456613;32;32338;-78
2024/03/27 08:26:38;;;;;;;0.45;0.20;;;;;;;13.44;54.64;98362.66;4454496;32;33316;-78
2024/03/27 08:29:04;;;;;;;0.25;0.25;;;;;;;13.44;54.68;98363.50;4468340;32;33159;-79
2024/03/27 08:31:31;;;;;;;0.10;0.10;;;;;;;13.58;54.51;98357.94;4455619;31;32339;-79
2024/03/27 08:33:58;;;;;;;0.88;0.85;;;;;;;13.55;54.57;98357.34;4456969;32;33832;-78
2024/03/27 08:36:25;;;;;;;0.15;0.15;;;;;;;13.99;53.58;98344.97;4443374;32;33024;-78
2024/03/27 08:38:51;;;;;;;0.10;0.10;;;;;;;14.14;53.34;98342.88;4443168;32;33222;-78
2024/03/27 08:41:18;;;;;;;0.40;0.40;;;;;;;14.21;52.18;98333.47;4443570;32;32342;-78
2024/03/27 08:43:45;;;;;;;0.88;0.13;;;;;;;14.08;52.93;98338.94;4455896;32;34522;-78
2024/03/27 08:46:11;;;;;;;0.47;0.47;;;;;;;14.32;52.28;98336.09;4456328;32;36649;-78
2024/03/27 08:48:38;;;;;;;0.25;0.25;;;;;;;14.43;51.85;98333.41;4468584;32;34314;-78
2024/03/27 08:51:04;;;;;;;0.20;0.20;;;;;;;14.19;51.97;98338.06;4456378;32;33970;-78
2024/03/27 08:53:32;;;;;;;0.65;0.37;;;;;;;14.52;51.78;98337.13;4456656;32;32773;-78
2024/03/27 08:55:59;;;;;;;0.80;0.80;;;;;;;14.29;52.20;98325.69;4468646;32;34004;-78
2024/03/27 08:58:25;;;;;;;0.62;0.62;;;;;;;14.15;52.67;98328.66;4441823;31;31903;-78
2024/03/27 09:00:52;;;;;;;0.60;0.60;;;;;;;14.08;52.69;98328.31;4456137;32;33185;-78
2024/03/27 09:03:19;;;;;;;0.40;0.28;;;;;;;13.96;53.38;98332.81;4455201;32;33861;-78
2024/03/27 09:05:45;;;;;;;0.17;0.17;;;;;;;13.78;53.79;98329.00;4455705;32;32446;-78
2024/03/27 09:08:13;;;;;;;0.68;0.68;;;;;;;14.26;53.50;98331.28;4455147;32;34205;-79
2024/03/27 09:10:39;;;;;;;0.57;0.55;;;;;;;14.53;52.06;98334.34;4455903;32;34601;-78
2024/03/27 09:13:06;;;;;;;0.20;0.20;;;;;;;14.32;51.95;98331.59;4455491;32;32745;-78
2024/03/27 09:15:32;;;;;;;0.62;0.47;;;;;;;14.29;52.46;98323.03;4455887;32;34081;-78
2024/03/27 09:17:59;;;;;;;0.40;0.40;;;;;;;14.48;51.84;98320.62;4445287;31;33383;-78
2024/03/27 09:20:26;;;;;;;0.52;0.43;;;;;;;14.45;51.67;98328.78;4468660;32;33350;-79
2024/03/27 09:22:52;;;;;;;0.13;0.13;;;;;;;14.22;52.30;98328.03;4442995;32;32885;-78
2024/03/27 09:25:19;;;;;;;0.35;0.35;;;;;;;14.00;53.08;98336.88;4443361;31;34830;-79
2024/03/27 09:27:46;;;;;;;0.30;0.30;;;;;;;14.24;52.53;98327.91;4455815;32;34488;-79
2024/03/27 09:30:16;;;;;;;0.55;0.55;;;;;;;14.37;52.10;98325.06;4454800;32;32467;-79
2024/03/27 09:32:43;;;;;;;0.47;0.47;;;;;;;14.48;51.85;98323.28;4456510;32;33102;-79
2024/03/27 09:35:10;;;;;;;0.32;0.32;;;;;;;14.67;51.45;98327.88;4454305;32;32586;-78
2024/03/27 09:37:37;;;;;;;0.25;0.25;;;;;;;14.54;51.88;98324.56;4456134;32;33700;-78
2024/03/27 09:40:04;;;;;;;0.03;0.00;;;;;;;14.47;51.84;98326.84;4443107;32;32724;-79
2024/03/27 09:42:32;;;;;;;0.70;0.45;;;;;;;14.47;51.75;98326.00;4455887;32;34047;-80
2024/03/27 09:44:59;;;;;;;0.30;0.30;;;;;;;14.76;51.16;98302.34;4468192;32;34377;-80
2024/03/27 09:47:26;;;;;;;0.22;0.10;;;;;;;14.79;51.46;98292.28;4444626;32;34626;-81
2024/03/27 09:49:53;;;;;;;0.93;0.62;;;;;;;14.78;51.51;98292.44;4446830;32;32734;-80
2024/03/27 09:52:21;;;;;;;0.45;0.45;;;;;;;15.21;50.33;98296.72;4442918;32;32778;-79
2024/03/27 09:54:48;;;;;;;0.80;0.80;;;;;;;15.05;51.08;98297.22;4468151;32;35090;-80
2024/03/27 09:57:15;;;;;;;0.15;0.10;;;;;;;14.57;51.46;98301.25;4442091;32;32859;-80
2024/03/27 09:59:41;;;;;;;1.77;1.20;;;;;;;14.98;51.16;98283.59;4454727;32;31691;-80
2024/03/27 10:02:09;;;;;;;0.55;0.40;;;;;;;15.19;50.16;98282.72;4429286;32;33742;-80
2024/03/27 10:04:37;;;;;;;0.08;0.08;;;;;;;15.39;50.12;98273.84;4460134;32;32789;-80
2024/03/27 10:07:04;;;;;;;0.08;0.08;;;;;;;15.22;51.29;98277.97;4455704;32;33880;-80
2024/03/27 10:09:31;;;;;;;0.20;0.20;;;;;;;15.59;50.09;98267.62;4467333;32;33255;-80
2024/03/27 10:11:58;;;;;;;0.77;0.77;;;;;;;15.91;48.79;98258.63;4468438;32;33555;-80
2024/03/27 10:14:24;;;;;;;3.40;2.22;;;;;;;15.90;49.68;98258.72;4454223;32;34494;-80
2024/03/27 10:16:51;;;;;;;0.30;0.28;;;;;;;16.06;48.56;98257.22;4452408;32;33935;-80
2024/03/27 10:19:18;;;;;;;0.40;0.40;;;;;;;16.15;48.17;98254.72;4454229;32;32288;-80
2024/03/27 10:21:46;;;;;;;1.40;0.75;;;;;;;16.17;47.92;98258.06;4454157;32;33311;-80
2024/03/27 10:24:14;;;;;;;0.15;0.15;;;;;;;16.08;48.85;98244.59;4455046;32;33434;-80
2024/03/27 10:26:45;;;;;;;0.20;0.20;;;;;;;16.53;47.44;98238.69;4454689;32;34361;-80
2024/03/27 10:29:12;;;;;;;0.47;0.20;;;;;;;16.62;47.06;98237.84;4467876;32;32877;-80
2024/03/27 10:31:40;;;;;;;2.05;1.27;;;;;;;16.30;47.60;98237.31;4442252;32;33425;-81
2024/03/27 10:34:08;;;;;;;3.33;0.75;;;;;;;16.40;47.90;98243.47;4440971;32;35458;-81
2024/03/27 10:36:35;;;;;;;0.40;0.40;;;;;;;16.98;46.72;98238.06;4455152;32;33565;-80
2024/03/27 10:39:04;;;;;;;0.00;0.00;;;;;;;16.76;47.03;98233.94;4442903;32;32012;-83
2024/03/27 10:41:32;;;;;;;0.35;0.35;;;;;;;16.30;47.43;98240.81;4455225;32;32705;-78
2024/03/27 10:44:00;;;;;;;1.00;1.00;;;;;;;16.83;46.75;98237.69;4467828;32;34671;-80
2024/03/27 10:46:27;;;;;;;0.20;0.20;;;;;;;17.02;46.49;98247.44;4456178;32;33039;-80
2024/03/27 10:48:55;;;;;;;6.80;1.42;;;;;;;17.06;45.99;98246.16;4455003;32;32150;-78
2024/03/27 10:51:24;;;;;;;0.65;0.50;;;;;;;17.67;45.23;98244.75;4454194;32;33958;-80
2024/03/27 10:53:51;;;;;;;0.30;0.20;;;;;;;17.27;45.85;98247.75;4453100;32;33948;-80
2024/03/27 10:56:18;;;;;;;0.20;0.20;;;;;;;17.47;45.49;98248.50;4466377;32;34070;-80
2024/03/27 10:58:45;;;;;;;0.20;0.20;;;;;;;17.74;44.99;98235.19;4456500;32;34133;-80
2024/03/27 11:01:12;;;;;;;0.30;0.30;;;;;;;17.65;44.98;98239.56;4470113;32;33942;-80
2024/03/27 11:03:43;;;;;;;0.15;0.15;;;;;;;17.54;44.68;98236.25;4444531;32;33818;-80
2024/03/27 11:06:15;;;;;;;0.13;0.10;;;;;;;17.45;45.69;98230.00;4470612;32;33859;-79
2024/03/27 11:08:43;;;;;;;0.10;0.10;;;;;;;17.88;43.90;98217.81;4470289;32;33419;-80
2024/03/27 11:11:12;;;;;;;5.03;1.02;;;;;;;17.27;45.66;98221.09;4469565;32;33806;-80
2024/03/27 11:13:44;;;;;;;5.62;1.27;;;;;;;17.24;46.00;98224.06;4456751;31;33946;-80
2024/03/27 11:16:11;;;;;;;0.10;0.10;;;;;;;17.52;45.40;98222.22;4468854;32;33573;-80
2024/03/27 11:18:38;;;;;;;9.63;2.05;;;;;;;17.75;45.55;98210.16;4469826;32;33110;-80
2024/03/27 11:21:06;;;;;;;0.65;0.65;;;;;;;18.34;44.42;98215.91;4470171;32;33518;-80
2024/03/27 11:23:34;;;;;;;0.50;0.50;;;;;;;18.54;43.29;98212.03;4454016;32;33948;-81
2024/03/27 11:26:04;;;;;;;3.20;1.05;;;;;;;18.80;43.30;98211.22;4457646;32;33116;-81
2024/03/27 11:28:32;;;;;;;0.52;0.52;;;;;;;19.13;42.43;98206.91;4453323;32;33711;-81
2024/03/27 11:30:59;;;;;;;0.22;0.22;;;;;;;19.05;42.85;98207.72;4457292;32;35066;-81
2024/03/27 11:33:26;;;;;;;0.70;0.65;;;;;;;19.54;41.89;98199.88;4455210;32;33311;-82
2024/03/27 11:35:52;;;;;;;0.50;0.35;;;;;;;19.77;40.61;98193.94;4454729;32;34317;-81
2024/03/27 11:38:21;;;;;;;0.17;0.17;;;;;;;20.25;39.79;98187.78;4443218;32;34301;-82